sensor_id;sensor_type;location;lat;lon;timestamp;P1;durP1;ratioP1;P2;durP2;ratioP2
65187;SDS011;51775;51.148;6.950;2023-04-24T00:01:57;0.30;;;0.30;;
65187;SDS011;51775;51.148;6.950;2023-04-24T00:04:23;0.25;;;0.25;;
65187;SDS011;51775;51.148;6.950;2023-04-24T00:06:48;0.40;;;0.30;;
65187;SDS011;51775;51.148;6.950;2023-04-24T00:09:13;0.20;;;0.20;;
65187;SDS011;51775;51.148;6.950;2023-04-24T00:11:38;0.38;;;0.28;;
65187;SDS011;51775;51.148;6.950;2023-04-24T00:14:04;0.40;;;0.20;;
65187;SDS011;51775;51.148;6.950;2023-04-24T00:16:29;0.28;;;0.20;;
65187;SDS011;51775;51.148;6.950;2023-04-24T00:18:54;0.20;;;0.20;;
65187;SDS011;51775;51.148;6.950;2023-04-24T00:21:19;0.13;;;0.13;;
65187;SDS011;51775;51.148;6.950;2023-04-24T00:23:45;0.20;;;0.20;;
65187;SDS011;51775;51.148;6.950;2023-04-24T00:26:11;0.50;;;0.40;;
65187;SDS011;51775;51.148;6.950;2023-04-24T00:28:36;0.32;;;0.22;;
65187;SDS011;51775;51.148;6.950;2023-04-24T00:31:01;0.30;;;0.30;;
65187;SDS011;51775;51.148;6.950;2023-04-24T00:33:26;0.50;;;0.30;;
65187;SDS011;51775;51.148;6.950;2023-04-24T00:35:52;0.43;;;0.30;;
65187;SDS011;51775;51.148;6.950;2023-04-24T00:38:17;0.40;;;0.30;;
65187;SDS011;51775;51.148;6.950;2023-04-24T00:40:43;0.40;;;0.40;;
65187;SDS011;51775;51.148;6.950;2023-04-24T00:43:08;0.30;;;0.30;;
65187;SDS011;51775;51.148;6.950;2023-04-24T00:45:33;0.20;;;0.20;;
65187;SDS011;51775;51.148;6.950;2023-04-24T00:47:59;0.28;;;0.20;;
65187;SDS011;51775;51.148;6.950;2023-04-24T00:50:25;0.52;;;0.50;;
65187;SDS011;51775;51.148;6.950;2023-04-24T00:52:50;0.30;;;0.30;;
65187;SDS011;51775;51.148;6.950;2023-04-24T00:55:16;0.85;;;0.40;;
65187;SDS011;51775;51.148;6.950;2023-04-24T00:57:41;0.30;;;0.30;;
65187;SDS011;51775;51.148;6.950;2023-04-24T01:00:08;0.50;;;0.32;;
65187;SDS011;51775;51.148;6.950;2023-04-24T01:02:33;0.68;;;0.40;;
65187;SDS011;51775;51.148;6.950;2023-04-24T01:04:59;0.40;;;0.30;;
65187;SDS011;51775;51.148;6.950;2023-04-24T01:07:24;0.30;;;0.30;;
65187;SDS011;51775;51.148;6.950;2023-04-24T01:09:50;0.52;;;0.40;;
65187;SDS011;51775;51.148;6.950;2023-04-24T01:12:15;0.52;;;0.43;;
65187;SDS011;51775;51.148;6.950;2023-04-24T01:14:41;0.47;;;0.25;;
65187;SDS011;51775;51.148;6.950;2023-04-24T01:17:06;0.32;;;0.30;;
65187;SDS011;51775;51.148;6.950;2023-04-24T01:19:32;0.32;;;0.30;;
65187;SDS011;51775;51.148;6.950;2023-04-24T01:21:58;0.30;;;0.20;;
65187;SDS011;51775;51.148;6.950;2023-04-24T01:24:26;0.60;;;0.40;;
65187;SDS011;51775;51.148;6.950;2023-04-24T01:26:52;0.65;;;0.40;;
65187;SDS011;51775;51.148;6.950;2023-04-24T01:29:17;0.45;;;0.30;;
65187;SDS011;51775;51.148;6.950;2023-04-24T01:31:43;0.45;;;0.40;;
65187;SDS011;51775;51.148;6.950;2023-04-24T01:34:08;0.47;;;0.43;;
65187;SDS011;51775;51.148;6.950;2023-04-24T01:36:34;0.45;;;0.40;;
65187;SDS011;51775;51.148;6.950;2023-04-24T01:39:00;0.47;;;0.30;;
65187;SDS011;51775;51.148;6.950;2023-04-24T01:41:25;1.00;;;0.60;;
65187;SDS011;51775;51.148;6.950;2023-04-24T01:43:51;0.30;;;0.30;;
65187;SDS011;51775;51.148;6.950;2023-04-24T01:46:17;0.85;;;0.60;;
65187;SDS011;51775;51.148;6.950;2023-04-24T01:48:44;0.65;;;0.52;;
65187;SDS011;51775;51.148;6.950;2023-04-24T01:51:10;0.85;;;0.52;;
65187;SDS011;51775;51.148;6.950;2023-04-24T01:53:35;0.70;;;0.50;;
65187;SDS011;51775;51.148;6.950;2023-04-24T01:56:00;0.85;;;0.57;;
65187;SDS011;51775;51.148;6.950;2023-04-24T01:58:26;0.90;;;0.60;;
65187;SDS011;51775;51.148;6.950;2023-04-24T02:00:52;0.80;;;0.60;;
65187;SDS011;51775;51.148;6.950;2023-04-24T02:03:17;1.08;;;0.60;;
65187;SDS011;51775;51.148;6.950;2023-04-24T02:05:45;0.68;;;0.60;;
65187;SDS011;51775;51.148;6.950;2023-04-24T02:08:10;0.88;;;0.68;;
65187;SDS011;51775;51.148;6.950;2023-04-24T02:10:36;0.80;;;0.60;;
65187;SDS011;51775;51.148;6.950;2023-04-24T02:13:01;0.70;;;0.60;;
65187;SDS011;51775;51.148;6.950;2023-04-24T02:15:26;1.05;;;0.60;;
65187;SDS011;51775;51.148;6.950;2023-04-24T02:17:52;0.90;;;0.65;;
65187;SDS011;51775;51.148;6.950;2023-04-24T02:20:17;0.75;;;0.60;;
65187;SDS011;51775;51.148;6.950;2023-04-24T02:22:42;0.93;;;0.63;;
65187;SDS011;51775;51.148;6.950;2023-04-24T02:25:17;1.15;;;0.68;;
65187;SDS011;51775;51.148;6.950;2023-04-24T02:27:43;0.90;;;0.60;;
65187;SDS011;51775;51.148;6.950;2023-04-24T02:30:08;1.17;;;0.70;;
65187;SDS011;51775;51.148;6.950;2023-04-24T02:32:34;1.13;;;0.80;;
65187;SDS011;51775;51.148;6.950;2023-04-24T02:34:59;1.00;;;0.70;;
65187;SDS011;51775;51.148;6.950;2023-04-24T02:37:24;0.90;;;0.70;;
65187;SDS011;51775;51.148;6.950;2023-04-24T02:39:49;1.08;;;0.77;;
65187;SDS011;51775;51.148;6.950;2023-04-24T02:42:15;1.23;;;0.80;;
65187;SDS011;51775;51.148;6.950;2023-04-24T02:44:40;1.20;;;0.80;;
65187;SDS011;51775;51.148;6.950;2023-04-24T02:47:05;1.38;;;0.90;;
65187;SDS011;51775;51.148;6.950;2023-04-24T02:49:30;0.88;;;0.70;;
65187;SDS011;51775;51.148;6.950;2023-04-24T02:51:56;1.48;;;0.90;;
65187;SDS011;51775;51.148;6.950;2023-04-24T02:54:21;1.30;;;0.90;;
65187;SDS011;51775;51.148;6.950;2023-04-24T02:56:46;1.50;;;0.90;;
65187;SDS011;51775;51.148;6.950;2023-04-24T02:59:11;1.15;;;0.82;;
65187;SDS011;51775;51.148;6.950;2023-04-24T03:01:37;1.13;;;0.80;;
65187;SDS011;51775;51.148;6.950;2023-04-24T03:04:02;2.13;;;1.20;;
65187;SDS011;51775;51.148;6.950;2023-04-24T03:06:27;1.42;;;1.00;;
65187;SDS011;51775;51.148;6.950;2023-04-24T03:08:52;1.42;;;0.95;;
65187;SDS011;51775;51.148;6.950;2023-04-24T03:11:18;1.23;;;0.80;;
65187;SDS011;51775;51.148;6.950;2023-04-24T03:13:43;1.40;;;0.95;;
65187;SDS011;51775;51.148;6.950;2023-04-24T03:16:08;1.70;;;0.80;;
65187;SDS011;51775;51.148;6.950;2023-04-24T03:18:34;1.70;;;1.15;;
65187;SDS011;51775;51.148;6.950;2023-04-24T03:20:59;1.55;;;0.90;;
65187;SDS011;51775;51.148;6.950;2023-04-24T03:23:25;1.58;;;0.90;;
65187;SDS011;51775;51.148;6.950;2023-04-24T03:25:50;1.75;;;1.02;;
65187;SDS011;51775;51.148;6.950;2023-04-24T03:28:15;1.25;;;0.82;;
65187;SDS011;51775;51.148;6.950;2023-04-24T03:30:41;1.50;;;0.90;;
65187;SDS011;51775;51.148;6.950;2023-04-24T03:33:06;1.80;;;1.10;;
65187;SDS011;51775;51.148;6.950;2023-04-24T03:35:31;1.50;;;0.90;;
65187;SDS011;51775;51.148;6.950;2023-04-24T03:37:56;1.55;;;1.00;;
65187;SDS011;51775;51.148;6.950;2023-04-24T03:40:22;1.67;;;1.10;;
65187;SDS011;51775;51.148;6.950;2023-04-24T03:42:47;1.52;;;0.90;;
65187;SDS011;51775;51.148;6.950;2023-04-24T03:45:12;1.20;;;0.82;;
65187;SDS011;51775;51.148;6.950;2023-04-24T03:47:37;1.20;;;0.80;;
65187;SDS011;51775;51.148;6.950;2023-04-24T03:50:03;1.40;;;0.90;;
65187;SDS011;51775;51.148;6.950;2023-04-24T03:52:28;1.27;;;1.00;;
65187;SDS011;51775;51.148;6.950;2023-04-24T03:54:53;1.38;;;0.98;;
65187;SDS011;51775;51.148;6.950;2023-04-24T03:57:19;1.38;;;0.98;;
65187;SDS011;51775;51.148;6.950;2023-04-24T03:59:44;1.70;;;1.00;;
65187;SDS011;51775;51.148;6.950;2023-04-24T04:02:09;1.58;;;1.10;;
65187;SDS011;51775;51.148;6.950;2023-04-24T04:04:35;1.58;;;0.98;;
65187;SDS011;51775;51.148;6.950;2023-04-24T04:07:00;1.50;;;1.10;;
65187;SDS011;51775;51.148;6.950;2023-04-24T04:09:25;1.90;;;1.10;;
65187;SDS011;51775;51.148;6.950;2023-04-24T04:11:50;1.90;;;1.20;;
65187;SDS011;51775;51.148;6.950;2023-04-24T04:14:16;1.80;;;1.10;;
65187;SDS011;51775;51.148;6.950;2023-04-24T04:16:41;2.00;;;1.10;;
65187;SDS011;51775;51.148;6.950;2023-04-24T04:19:06;1.40;;;0.95;;
65187;SDS011;51775;51.148;6.950;2023-04-24T04:21:31;1.50;;;1.00;;
65187;SDS011;51775;51.148;6.950;2023-04-24T04:23:57;2.75;;;1.23;;
65187;SDS011;51775;51.148;6.950;2023-04-24T04:26:22;2.00;;;1.00;;
65187;SDS011;51775;51.148;6.950;2023-04-24T04:28:47;1.80;;;1.20;;
65187;SDS011;51775;51.148;6.950;2023-04-24T04:31:12;1.77;;;1.20;;
65187;SDS011;51775;51.148;6.950;2023-04-24T04:33:38;1.77;;;1.10;;
65187;SDS011;51775;51.148;6.950;2023-04-24T04:36:03;1.45;;;1.00;;
65187;SDS011;51775;51.148;6.950;2023-04-24T04:38:28;1.67;;;1.17;;
65187;SDS011;51775;51.148;6.950;2023-04-24T04:40:54;1.40;;;1.10;;
65187;SDS011;51775;51.148;6.950;2023-04-24T04:43:19;1.35;;;1.00;;
65187;SDS011;51775;51.148;6.950;2023-04-24T04:45:44;1.95;;;1.05;;
65187;SDS011;51775;51.148;6.950;2023-04-24T04:48:10;1.67;;;1.05;;
65187;SDS011;51775;51.148;6.950;2023-04-24T04:50:35;1.65;;;1.00;;
65187;SDS011;51775;51.148;6.950;2023-04-24T04:53:00;1.83;;;1.10;;
65187;SDS011;51775;51.148;6.950;2023-04-24T04:55:26;1.40;;;0.90;;
65187;SDS011;51775;51.148;6.950;2023-04-24T04:57:51;1.50;;;1.00;;
65187;SDS011;51775;51.148;6.950;2023-04-24T05:00:16;1.48;;;1.00;;
65187;SDS011;51775;51.148;6.950;2023-04-24T05:02:42;2.10;;;1.15;;
65187;SDS011;51775;51.148;6.950;2023-04-24T05:05:07;1.30;;;1.00;;
65187;SDS011;51775;51.148;6.950;2023-04-24T05:07:33;1.60;;;1.02;;
65187;SDS011;51775;51.148;6.950;2023-04-24T05:10:00;1.63;;;1.00;;
65187;SDS011;51775;51.148;6.950;2023-04-24T05:12:26;2.20;;;1.17;;
65187;SDS011;51775;51.148;6.950;2023-04-24T05:14:51;2.08;;;1.20;;
65187;SDS011;51775;51.148;6.950;2023-04-24T05:17:17;1.38;;;0.90;;
65187;SDS011;51775;51.148;6.950;2023-04-24T05:19:43;1.52;;;1.05;;
65187;SDS011;51775;51.148;6.950;2023-04-24T05:22:08;1.98;;;1.10;;
65187;SDS011;51775;51.148;6.950;2023-04-24T05:24:33;2.63;;;1.15;;
65187;SDS011;51775;51.148;6.950;2023-04-24T05:26:59;1.33;;;1.00;;
65187;SDS011;51775;51.148;6.950;2023-04-24T05:29:24;1.80;;;1.15;;
65187;SDS011;51775;51.148;6.950;2023-04-24T05:31:49;1.85;;;1.10;;
65187;SDS011;51775;51.148;6.950;2023-04-24T05:34:15;2.03;;;1.17;;
65187;SDS011;51775;51.148;6.950;2023-04-24T05:36:40;2.00;;;1.05;;
65187;SDS011;51775;51.148;6.950;2023-04-24T05:39:05;1.67;;;1.05;;
65187;SDS011;51775;51.148;6.950;2023-04-24T05:41:31;1.65;;;1.08;;
65187;SDS011;51775;51.148;6.950;2023-04-24T05:43:57;4.53;;;1.05;;
65187;SDS011;51775;51.148;6.950;2023-04-24T05:46:22;1.58;;;1.10;;
65187;SDS011;51775;51.148;6.950;2023-04-24T05:48:47;2.45;;;1.10;;
65187;SDS011;51775;51.148;6.950;2023-04-24T05:51:13;1.77;;;1.20;;
65187;SDS011;51775;51.148;6.950;2023-04-24T05:53:38;1.83;;;1.10;;
65187;SDS011;51775;51.148;6.950;2023-04-24T05:56:03;1.90;;;1.10;;
65187;SDS011;51775;51.148;6.950;2023-04-24T05:58:29;1.75;;;1.02;;
65187;SDS011;51775;51.148;6.950;2023-04-24T06:00:54;1.65;;;1.02;;
65187;SDS011;51775;51.148;6.950;2023-04-24T06:03:19;1.58;;;1.00;;
65187;SDS011;51775;51.148;6.950;2023-04-24T06:05:44;1.20;;;0.90;;
65187;SDS011;51775;51.148;6.950;2023-04-24T06:08:10;2.30;;;1.20;;
65187;SDS011;51775;51.148;6.950;2023-04-24T06:10:35;1.75;;;1.02;;
65187;SDS011;51775;51.148;6.950;2023-04-24T06:13:00;1.58;;;1.00;;
65187;SDS011;51775;51.148;6.950;2023-04-24T06:15:27;1.58;;;0.93;;
65187;SDS011;51775;51.148;6.950;2023-04-24T06:17:53;1.55;;;1.08;;
65187;SDS011;51775;51.148;6.950;2023-04-24T06:20:20;1.90;;;1.05;;
65187;SDS011;51775;51.148;6.950;2023-04-24T06:22:45;2.80;;;1.10;;
65187;SDS011;51775;51.148;6.950;2023-04-24T06:25:10;1.77;;;1.02;;
65187;SDS011;51775;51.148;6.950;2023-04-24T06:27:36;1.73;;;1.02;;
65187;SDS011;51775;51.148;6.950;2023-04-24T06:30:01;1.60;;;1.00;;
65187;SDS011;51775;51.148;6.950;2023-04-24T06:32:27;1.88;;;1.02;;
65187;SDS011;51775;51.148;6.950;2023-04-24T06:34:52;1.58;;;0.95;;
65187;SDS011;51775;51.148;6.950;2023-04-24T06:37:18;1.75;;;1.02;;
65187;SDS011;51775;51.148;6.950;2023-04-24T06:39:44;1.92;;;1.10;;
65187;SDS011;51775;51.148;6.950;2023-04-24T06:42:09;1.85;;;0.90;;
65187;SDS011;51775;51.148;6.950;2023-04-24T06:44:35;2.28;;;1.00;;
65187;SDS011;51775;51.148;6.950;2023-04-24T06:47:00;2.45;;;1.00;;
65187;SDS011;51775;51.148;6.950;2023-04-24T06:49:25;0.98;;;0.77;;
65187;SDS011;51775;51.148;6.950;2023-04-24T06:51:51;1.50;;;0.93;;
65187;SDS011;51775;51.148;6.950;2023-04-24T06:54:16;1.02;;;0.82;;
65187;SDS011;51775;51.148;6.950;2023-04-24T06:56:41;1.40;;;0.82;;
65187;SDS011;51775;51.148;6.950;2023-04-24T06:59:06;1.17;;;0.80;;
65187;SDS011;51775;51.148;6.950;2023-04-24T07:01:32;1.05;;;0.80;;
65187;SDS011;51775;51.148;6.950;2023-04-24T07:03:57;2.70;;;0.90;;
65187;SDS011;51775;51.148;6.950;2023-04-24T07:06:22;1.45;;;0.90;;
65187;SDS011;51775;51.148;6.950;2023-04-24T07:08:47;1.40;;;0.90;;
65187;SDS011;51775;51.148;6.950;2023-04-24T07:11:13;1.65;;;0.90;;
65187;SDS011;51775;51.148;6.950;2023-04-24T07:13:38;1.13;;;0.80;;
65187;SDS011;51775;51.148;6.950;2023-04-24T07:16:03;1.00;;;0.80;;
65187;SDS011;51775;51.148;6.950;2023-04-24T07:18:29;1.60;;;0.77;;
65187;SDS011;51775;51.148;6.950;2023-04-24T07:20:55;1.23;;;0.77;;
65187;SDS011;51775;51.148;6.950;2023-04-24T07:23:20;1.00;;;0.70;;
65187;SDS011;51775;51.148;6.950;2023-04-24T07:25:45;0.90;;;0.60;;
65187;SDS011;51775;51.148;6.950;2023-04-24T07:28:10;0.75;;;0.63;;
65187;SDS011;51775;51.148;6.950;2023-04-24T07:30:36;2.47;;;0.70;;
65187;SDS011;51775;51.148;6.950;2023-04-24T07:33:01;0.88;;;0.60;;
65187;SDS011;51775;51.148;6.950;2023-04-24T07:35:26;2.08;;;0.80;;
65187;SDS011;51775;51.148;6.950;2023-04-24T07:37:54;0.73;;;0.60;;
65187;SDS011;51775;51.148;6.950;2023-04-24T07:40:20;1.52;;;0.80;;
65187;SDS011;51775;51.148;6.950;2023-04-24T07:42:48;0.80;;;0.60;;
65187;SDS011;51775;51.148;6.950;2023-04-24T07:45:13;0.68;;;0.55;;
65187;SDS011;51775;51.148;6.950;2023-04-24T07:47:41;1.00;;;0.63;;
65187;SDS011;51775;51.148;6.950;2023-04-24T07:50:06;1.80;;;0.50;;
65187;SDS011;51775;51.148;6.950;2023-04-24T07:52:32;0.60;;;0.60;;
65187;SDS011;51775;51.148;6.950;2023-04-24T07:54:57;1.23;;;0.68;;
65187;SDS011;51775;51.148;6.950;2023-04-24T07:57:22;1.13;;;0.50;;
65187;SDS011;51775;51.148;6.950;2023-04-24T07:59:48;1.30;;;0.68;;
65187;SDS011;51775;51.148;6.950;2023-04-24T08:02:13;0.63;;;0.47;;
65187;SDS011;51775;51.148;6.950;2023-04-24T08:04:39;1.63;;;0.50;;
65187;SDS011;51775;51.148;6.950;2023-04-24T08:07:04;1.50;;;0.40;;
65187;SDS011;51775;51.148;6.950;2023-04-24T08:09:29;1.92;;;0.50;;
65187;SDS011;51775;51.148;6.950;2023-04-24T08:11:54;1.67;;;0.50;;
65187;SDS011;51775;51.148;6.950;2023-04-24T08:14:20;1.30;;;0.60;;
65187;SDS011;51775;51.148;6.950;2023-04-24T08:16:45;1.80;;;0.50;;
65187;SDS011;51775;51.148;6.950;2023-04-24T08:19:10;1.83;;;0.52;;
65187;SDS011;51775;51.148;6.950;2023-04-24T08:21:36;1.60;;;0.50;;
65187;SDS011;51775;51.148;6.950;2023-04-24T08:24:01;0.90;;;0.32;;
65187;SDS011;51775;51.148;6.950;2023-04-24T08:26:26;0.60;;;0.50;;
65187;SDS011;51775;51.148;6.950;2023-04-24T08:28:52;0.50;;;0.50;;
65187;SDS011;51775;51.148;6.950;2023-04-24T08:31:17;0.50;;;0.40;;
65187;SDS011;51775;51.148;6.950;2023-04-24T08:33:43;0.40;;;0.40;;
65187;SDS011;51775;51.148;6.950;2023-04-24T08:36:08;0.70;;;0.50;;
65187;SDS011;51775;51.148;6.950;2023-04-24T08:38:33;1.25;;;0.60;;
65187;SDS011;51775;51.148;6.950;2023-04-24T08:41:00;1.45;;;0.60;;
65187;SDS011;51775;51.148;6.950;2023-04-24T08:43:26;0.80;;;0.50;;
65187;SDS011;51775;51.148;6.950;2023-04-24T08:45:52;1.48;;;0.60;;
65187;SDS011;51775;51.148;6.950;2023-04-24T08:48:21;0.88;;;0.60;;
65187;SDS011;51775;51.148;6.950;2023-04-24T08:50:47;1.13;;;0.60;;
65187;SDS011;51775;51.148;6.950;2023-04-24T08:53:16;0.50;;;0.50;;
65187;SDS011;51775;51.148;6.950;2023-04-24T08:55:43;0.77;;;0.50;;
65187;SDS011;51775;51.148;6.950;2023-04-24T08:58:11;0.75;;;0.60;;
65187;SDS011;51775;51.148;6.950;2023-04-24T09:00:37;0.60;;;0.60;;
65187;SDS011;51775;51.148;6.950;2023-04-24T09:03:04;0.63;;;0.50;;
65187;SDS011;51775;51.148;6.950;2023-04-24T09:05:31;0.60;;;0.55;;
65187;SDS011;51775;51.148;6.950;2023-04-24T09:07:57;0.68;;;0.50;;
65187;SDS011;51775;51.148;6.950;2023-04-24T09:10:24;0.43;;;0.38;;
65187;SDS011;51775;51.148;6.950;2023-04-24T09:12:51;0.77;;;0.50;;
65187;SDS011;51775;51.148;6.950;2023-04-24T09:15:16;0.60;;;0.60;;
65187;SDS011;51775;51.148;6.950;2023-04-24T09:17:43;0.63;;;0.50;;
65187;SDS011;51775;51.148;6.950;2023-04-24T09:20:08;0.40;;;0.40;;
65187;SDS011;51775;51.148;6.950;2023-04-24T09:22:34;3.40;;;0.70;;
65187;SDS011;51775;51.148;6.950;2023-04-24T09:25:06;4.88;;;0.70;;
65187;SDS011;51775;51.148;6.950;2023-04-24T09:27:35;1.15;;;0.50;;
65187;SDS011;51775;51.148;6.950;2023-04-24T09:30:00;0.80;;;0.60;;
65187;SDS011;51775;51.148;6.950;2023-04-24T09:32:26;5.20;;;0.70;;
65187;SDS011;51775;51.148;6.950;2023-04-24T09:37:46;2.13;;;0.63;;
65187;SDS011;51775;51.148;6.950;2023-04-24T09:40:18;1.33;;;0.68;;
65187;SDS011;51775;51.148;6.950;2023-04-24T09:42:50;2.88;;;0.60;;
65187;SDS011;51775;51.148;6.950;2023-04-24T09:45:17;1.00;;;0.60;;
65187;SDS011;51775;51.148;6.950;2023-04-24T09:47:43;0.68;;;0.60;;
65187;SDS011;51775;51.148;6.950;2023-04-24T09:50:11;1.20;;;0.60;;
65187;SDS011;51775;51.148;6.950;2023-04-24T09:52:44;1.00;;;0.57;;
65187;SDS011;51775;51.148;6.950;2023-04-24T09:55:22;1.08;;;0.70;;
65187;SDS011;51775;51.148;6.950;2023-04-24T09:57:53;0.75;;;0.52;;
65187;SDS011;51775;51.148;6.950;2023-04-24T10:00:31;1.38;;;0.90;;
65187;SDS011;51775;51.148;6.950;2023-04-24T10:03:01;0.70;;;0.60;;
65187;SDS011;51775;51.148;6.950;2023-04-24T10:05:31;3.33;;;0.77;;
65187;SDS011;51775;51.148;6.950;2023-04-24T10:07:59;0.77;;;0.60;;
65187;SDS011;51775;51.148;6.950;2023-04-24T10:10:26;0.70;;;0.70;;
65187;SDS011;51775;51.148;6.950;2023-04-24T10:12:52;0.90;;;0.70;;
65187;SDS011;51775;51.148;6.950;2023-04-24T10:15:18;1.00;;;0.80;;
65187;SDS011;51775;51.148;6.950;2023-04-24T10:17:46;1.90;;;0.70;;
65187;SDS011;51775;51.148;6.950;2023-04-24T10:20:12;1.38;;;0.73;;
65187;SDS011;51775;51.148;6.950;2023-04-24T10:22:38;1.05;;;0.70;;
65187;SDS011;51775;51.148;6.950;2023-04-24T10:25:04;2.10;;;0.70;;
65187;SDS011;51775;51.148;6.950;2023-04-24T10:27:30;1.23;;;0.80;;
65187;SDS011;51775;51.148;6.950;2023-04-24T10:29:56;1.00;;;0.70;;
65187;SDS011;51775;51.148;6.950;2023-04-24T10:32:22;1.30;;;0.80;;
65187;SDS011;51775;51.148;6.950;2023-04-24T10:34:47;1.30;;;0.82;;
65187;SDS011;51775;51.148;6.950;2023-04-24T10:37:13;1.63;;;0.80;;
65187;SDS011;51775;51.148;6.950;2023-04-24T10:39:38;1.17;;;0.80;;
65187;SDS011;51775;51.148;6.950;2023-04-24T10:42:13;1.58;;;0.70;;
65187;SDS011;51775;51.148;6.950;2023-04-24T10:44:41;3.15;;;0.90;;
65187;SDS011;51775;51.148;6.950;2023-04-24T10:47:07;1.42;;;0.85;;
65187;SDS011;51775;51.148;6.950;2023-04-24T10:49:38;1.17;;;0.80;;
65187;SDS011;51775;51.148;6.950;2023-04-24T10:52:03;1.20;;;0.70;;
65187;SDS011;51775;51.148;6.950;2023-04-24T10:54:33;1.05;;;0.73;;
65187;SDS011;51775;51.148;6.950;2023-04-24T10:59:43;0.95;;;0.77;;
65187;SDS011;51775;51.148;6.950;2023-04-24T11:02:09;0.95;;;0.68;;
65187;SDS011;51775;51.148;6.950;2023-04-24T11:04:35;1.42;;;0.77;;
65187;SDS011;51775;51.148;6.950;2023-04-24T11:07:00;1.85;;;0.73;;
65187;SDS011;51775;51.148;6.950;2023-04-24T11:09:27;0.90;;;0.70;;
65187;SDS011;51775;51.148;6.950;2023-04-24T11:12:04;1.17;;;0.88;;
65187;SDS011;51775;51.148;6.950;2023-04-24T11:20:10;2.33;;;0.80;;
65187;SDS011;51775;51.148;6.950;2023-04-24T11:22:37;1.02;;;0.60;;
65187;SDS011;51775;51.148;6.950;2023-04-24T11:25:04;1.50;;;0.90;;
65187;SDS011;51775;51.148;6.950;2023-04-24T11:27:30;1.80;;;1.00;;
65187;SDS011;51775;51.148;6.950;2023-04-24T11:37:41;2.08;;;0.90;;
65187;SDS011;51775;51.148;6.950;2023-04-24T11:40:09;1.85;;;0.90;;
65187;SDS011;51775;51.148;6.950;2023-04-24T11:42:37;1.20;;;0.80;;
65187;SDS011;51775;51.148;6.950;2023-04-24T11:45:22;2.70;;;0.90;;
65187;SDS011;51775;51.148;6.950;2023-04-24T11:47:48;1.20;;;0.70;;
65187;SDS011;51775;51.148;6.950;2023-04-24T11:50:15;1.92;;;0.90;;
65187;SDS011;51775;51.148;6.950;2023-04-24T11:52:42;1.10;;;0.75;;
65187;SDS011;51775;51.148;6.950;2023-04-24T12:02:43;1.27;;;0.80;;
65187;SDS011;51775;51.148;6.950;2023-04-24T12:05:09;1.50;;;0.80;;
65187;SDS011;51775;51.148;6.950;2023-04-24T12:07:40;1.20;;;0.70;;
65187;SDS011;51775;51.148;6.950;2023-04-24T12:10:06;1.27;;;0.77;;
65187;SDS011;51775;51.148;6.950;2023-04-24T12:12:32;1.70;;;0.90;;
65187;SDS011;51775;51.148;6.950;2023-04-24T12:14:58;1.48;;;0.73;;
65187;SDS011;51775;51.148;6.950;2023-04-24T12:17:27;2.30;;;0.80;;
65187;SDS011;51775;51.148;6.950;2023-04-24T12:19:57;1.80;;;0.90;;
65187;SDS011;51775;51.148;6.950;2023-04-24T12:22:25;1.02;;;0.80;;
65187;SDS011;51775;51.148;6.950;2023-04-24T12:25:03;1.33;;;0.75;;
65187;SDS011;51775;51.148;6.950;2023-04-24T12:27:30;1.27;;;0.80;;
65187;SDS011;51775;51.148;6.950;2023-04-24T12:29:56;1.77;;;0.98;;
65187;SDS011;51775;51.148;6.950;2023-04-24T12:32:23;1.30;;;0.80;;
65187;SDS011;51775;51.148;6.950;2023-04-24T12:34:52;1.33;;;0.85;;
65187;SDS011;51775;51.148;6.950;2023-04-24T12:37:18;1.55;;;0.85;;
65187;SDS011;51775;51.148;6.950;2023-04-24T12:42:27;1.30;;;0.80;;
65187;SDS011;51775;51.148;6.950;2023-04-24T12:44:57;2.00;;;0.80;;
65187;SDS011;51775;51.148;6.950;2023-04-24T12:47:24;1.38;;;0.70;;
65187;SDS011;51775;51.148;6.950;2023-04-24T12:49:50;1.23;;;0.90;;
65187;SDS011;51775;51.148;6.950;2023-04-24T12:52:15;1.63;;;0.70;;
65187;SDS011;51775;51.148;6.950;2023-04-24T12:54:40;1.75;;;0.80;;
65187;SDS011;51775;51.148;6.950;2023-04-24T12:57:05;1.17;;;0.80;;
65187;SDS011;51775;51.148;6.950;2023-04-24T12:59:30;1.40;;;0.60;;
65187;SDS011;51775;51.148;6.950;2023-04-24T13:01:56;1.77;;;0.70;;
65187;SDS011;51775;51.148;6.950;2023-04-24T13:04:21;1.80;;;0.80;;
65187;SDS011;51775;51.148;6.950;2023-04-24T13:06:46;0.52;;;0.50;;
65187;SDS011;51775;51.148;6.950;2023-04-24T13:09:12;2.75;;;0.80;;
65187;SDS011;51775;51.148;6.950;2023-04-24T13:11:37;1.33;;;0.88;;
65187;SDS011;51775;51.148;6.950;2023-04-24T13:14:02;1.08;;;0.73;;
65187;SDS011;51775;51.148;6.950;2023-04-24T13:16:27;1.92;;;0.70;;
65187;SDS011;51775;51.148;6.950;2023-04-24T13:18:53;1.52;;;0.70;;
65187;SDS011;51775;51.148;6.950;2023-04-24T13:21:18;0.85;;;0.63;;
65187;SDS011;51775;51.148;6.950;2023-04-24T13:23:43;0.93;;;0.70;;
65187;SDS011;51775;51.148;6.950;2023-04-24T13:26:08;2.35;;;0.90;;
65187;SDS011;51775;51.148;6.950;2023-04-24T13:28:34;0.95;;;0.60;;
65187;SDS011;51775;51.148;6.950;2023-04-24T13:30:59;1.73;;;0.70;;
65187;SDS011;51775;51.148;6.950;2023-04-24T13:33:24;1.23;;;0.60;;
65187;SDS011;51775;51.148;6.950;2023-04-24T13:35:49;1.40;;;0.80;;
65187;SDS011;51775;51.148;6.950;2023-04-24T13:38:15;1.85;;;0.70;;
65187;SDS011;51775;51.148;6.950;2023-04-24T13:40:40;1.08;;;0.77;;
65187;SDS011;51775;51.148;6.950;2023-04-24T13:43:05;1.38;;;0.70;;
65187;SDS011;51775;51.148;6.950;2023-04-24T13:45:31;1.00;;;0.68;;
65187;SDS011;51775;51.148;6.950;2023-04-24T13:47:56;2.35;;;0.80;;
65187;SDS011;51775;51.148;6.950;2023-04-24T13:50:21;1.17;;;0.75;;
65187;SDS011;51775;51.148;6.950;2023-04-24T13:52:47;1.55;;;0.82;;
65187;SDS011;51775;51.148;6.950;2023-04-24T13:55:12;1.73;;;0.80;;
65187;SDS011;51775;51.148;6.950;2023-04-24T13:57:37;2.38;;;0.75;;
65187;SDS011;51775;51.148;6.950;2023-04-24T14:00:03;1.55;;;0.80;;
65187;SDS011;51775;51.148;6.950;2023-04-24T14:02:28;1.17;;;0.70;;
65187;SDS011;51775;51.148;6.950;2023-04-24T14:04:54;1.17;;;0.70;;
65187;SDS011;51775;51.148;6.950;2023-04-24T14:07:19;1.60;;;0.65;;
65187;SDS011;51775;51.148;6.950;2023-04-24T14:09:44;1.10;;;0.50;;
65187;SDS011;51775;51.148;6.950;2023-04-24T14:12:10;2.65;;;1.00;;
65187;SDS011;51775;51.148;6.950;2023-04-24T14:14:35;1.10;;;0.65;;
65187;SDS011;51775;51.148;6.950;2023-04-24T14:17:00;0.80;;;0.70;;
65187;SDS011;51775;51.148;6.950;2023-04-24T14:19:25;1.33;;;0.70;;
65187;SDS011;51775;51.148;6.950;2023-04-24T14:21:51;0.80;;;0.60;;
65187;SDS011;51775;51.148;6.950;2023-04-24T14:24:16;1.40;;;0.70;;
65187;SDS011;51775;51.148;6.950;2023-04-24T14:26:41;1.30;;;0.68;;
65187;SDS011;51775;51.148;6.950;2023-04-24T14:29:06;1.02;;;0.50;;
65187;SDS011;51775;51.148;6.950;2023-04-24T14:31:32;0.95;;;0.60;;
65187;SDS011;51775;51.148;6.950;2023-04-24T14:33:57;0.68;;;0.50;;
65187;SDS011;51775;51.148;6.950;2023-04-24T14:36:22;1.33;;;0.70;;
65187;SDS011;51775;51.148;6.950;2023-04-24T14:38:48;1.65;;;0.80;;
65187;SDS011;51775;51.148;6.950;2023-04-24T14:41:14;1.02;;;0.50;;
65187;SDS011;51775;51.148;6.950;2023-04-24T14:43:39;1.40;;;0.60;;
65187;SDS011;51775;51.148;6.950;2023-04-24T14:46:04;0.95;;;0.60;;
65187;SDS011;51775;51.148;6.950;2023-04-24T14:48:30;1.30;;;0.68;;
65187;SDS011;51775;51.148;6.950;2023-04-24T14:50:55;1.45;;;0.50;;
65187;SDS011;51775;51.148;6.950;2023-04-24T14:53:20;1.30;;;0.60;;
65187;SDS011;51775;51.148;6.950;2023-04-24T14:55:45;1.60;;;0.70;;
65187;SDS011;51775;51.148;6.950;2023-04-24T14:58:11;1.83;;;0.70;;
65187;SDS011;51775;51.148;6.950;2023-04-24T15:00:36;1.15;;;0.63;;
65187;SDS011;51775;51.148;6.950;2023-04-24T15:03:02;0.93;;;0.45;;
65187;SDS011;51775;51.148;6.950;2023-04-24T15:05:27;1.20;;;0.60;;
65187;SDS011;51775;51.148;6.950;2023-04-24T15:07:52;0.95;;;0.65;;
65187;SDS011;51775;51.148;6.950;2023-04-24T15:10:17;1.40;;;0.70;;